Time;durP1;ratioP1;P1;durP2;ratioP2;P2;SDS_P1;SDS_P2;PMS_P1;PMS_P2;Temp;Humidity;BMP_temperature;BMP_pressure;BME280_temperature;BME280_humidity;BME280_pressure;Samples;Min_cycle;Max_cycle;Signal;HPM_P1;HPM_P2
2022/07/28 00:00:24;;;;;;;4.4;3.8;;;;;;;;;;;;;
2022/07/28 00:02:49;;;;;;;3.9;3.5;;;;;;;;;;;;;
2022/07/28 00:05:14;;;;;;;4.4;3.9;;;;;;;;;;;;;
2022/07/28 00:07:39;;;;;;;3.9;3.4;;;;;;;;;;;;;
2022/07/28 00:10:06;;;;;;;4.4;3.7;;;;;;;;;;;;;
2022/07/28 00:12:31;;;;;;;5.1;3.6;;;;;;;;;;;;;
2022/07/28 00:14:57;;;;;;;4.2;3.8;;;;;;;;;;;;;
2022/07/28 00:17:22;;;;;;;6.7;3.6;;;;;;;;;;;;;
2022/07/28 00:19:49;;;;;;;4.4;3.9;;;;;;;;;;;;;
2022/07/28 00:22:13;;;;;;;3.6;3.3;;;;;;;;;;;;;
2022/07/28 00:24:40;;;;;;;4.9;3.8;;;;;;;;;;;;;
2022/07/28 00:27:05;;;;;;;5.4;3.8;;;;;;;;;;;;;
2022/07/28 00:29:30;;;;;;;5.3;3.6;;;;;;;;;;;;;
2022/07/28 00:31:55;;;;;;;6.3;3.7;;;;;;;;;;;;;
2022/07/28 00:34:21;;;;;;;4.6;3.5;;;;;;;;;;;;;
2022/07/28 00:36:46;;;;;;;4.3;3.7;;;;;;;;;;;;;
2022/07/28 00:39:12;;;;;;;4.3;3.9;;;;;;;;;;;;;
2022/07/28 00:41:37;;;;;;;4.2;3.8;;;;;;;;;;;;;
2022/07/28 00:44:04;;;;;;;4.8;3.6;;;;;;;;;;;;;
2022/07/28 00:46:29;;;;;;;3.6;3.3;;;;;;;;;;;;;
2022/07/28 00:48:56;;;;;;;4;3.7;;;;;;;;;;;;;
2022/07/28 00:51:21;;;;;;;4.7;3.9;;;;;;;;;;;;;
2022/07/28 00:53:46;;;;;;;3.9;3.5;;;;;;;;;;;;;
2022/07/28 00:56:11;;;;;;;4.9;4;;;;;;;;;;;;;
2022/07/28 00:58:39;;;;;;;4.2;3.7;;;;;;;;;;;;;
2022/07/28 01:01:04;;;;;;;4.9;3.9;;;;;;;;;;;;;
2022/07/28 01:03:31;;;;;;;4.2;3.5;;;;;;;;;;;;;
2022/07/28 01:05:56;;;;;;;4.6;3.9;;;;;;;;;;;;;
2022/07/28 01:08:21;;;;;;;5.2;4;;;;;;;;;;;;;
2022/07/28 01:10:47;;;;;;;4.3;3.8;;;;;;;;;;;;;
2022/07/28 01:13:12;;;;;;;4.3;3.9;;;;;;;;;;;;;
2022/07/28 01:15:37;;;;;;;4.1;3.7;;;;;;;;;;;;;
2022/07/28 01:18:02;;;;;;;4.3;3.8;;;;;;;;;;;;;
2022/07/28 01:20:27;;;;;;;4.4;4;;;;;;;;;;;;;
2022/07/28 01:22:53;;;;;;;4;3.6;;;;;;;;;;;;;
2022/07/28 01:25:18;;;;;;;4.4;4;;;;;;;;;;;;;
2022/07/28 01:27:43;;;;;;;4.8;3.8;;;;;;;;;;;;;
2022/07/28 01:30:08;;;;;;;5.2;3.7;;;;;;;;;;;;;
2022/07/28 01:32:33;;;;;;;4.9;3.7;;;;;;;;;;;;;
2022/07/28 01:34:59;;;;;;;9.5;4;;;;;;;;;;;;;
2022/07/28 01:37:24;;;;;;;4.5;3.6;;;;;;;;;;;;;
2022/07/28 01:39:51;;;;;;;4.3;3.9;;;;;;;;;;;;;
2022/07/28 01:42:14;;;;;;;3.7;3.3;;;;;;;;;;;;;
2022/07/28 01:44:40;;;;;;;4.1;3.7;;;;;;;;;;;;;
2022/07/28 01:47:06;;;;;;;4.5;3.8;;;;;;;;;;;;;
2022/07/28 01:49:32;;;;;;;4.4;3.8;;;;;;;;;;;;;
2022/07/28 01:51:57;;;;;;;3.8;3.5;;;;;;;;;;;;;
2022/07/28 01:54:23;;;;;;;4;3.5;;;;;;;;;;;;;
2022/07/28 01:56:47;;;;;;;5.2;3.8;;;;;;;;;;;;;
2022/07/28 01:59:14;;;;;;;4.8;3.6;;;;;;;;;;;;;
2022/07/28 02:01:39;;;;;;;4.7;3.7;;;;;;;;;;;;;
2022/07/28 02:04:05;;;;;;;4.5;3.7;;;;;;;;;;;;;
2022/07/28 02:06:31;;;;;;;4;3.5;;;;;;;;;;;;;
2022/07/28 02:08:57;;;;;;;4.7;3.8;;;;;;;;;;;;;
2022/07/28 02:13:47;;;;;;;3.9;3.5;;;;;;;;;;;;;
2022/07/28 02:16:14;;;;;;;4.4;4;;;;;;;;;;;;;
2022/07/28 02:18:39;;;;;;;4.4;4;;;;;;;;;;;;;
2022/07/28 02:21:04;;;;;;;5.5;4.3;;;;;;;;;;;;;
2022/07/28 02:23:29;;;;;;;4.9;4.5;;;;;;;;;;;;;
2022/07/28 02:25:56;;;;;;;4.1;3.7;;;;;;;;;;;;;
2022/07/28 02:28:21;;;;;;;6.8;4.2;;;;;;;;;;;;;
2022/07/28 02:30:46;;;;;;;5.3;3.8;;;;;;;;;;;;;
2022/07/28 02:33:12;;;;;;;4.8;4;;;;;;;;;;;;;
2022/07/28 02:35:40;;;;;;;5.3;3.9;;;;;;;;;;;;;
2022/07/28 02:38:05;;;;;;;4;3.5;;;;;;;;;;;;;
2022/07/28 02:40:31;;;;;;;4.2;3.8;;;;;;;;;;;;;
2022/07/28 02:42:56;;;;;;;4.8;3.9;;;;;;;;;;;;;
2022/07/28 02:45:24;;;;;;;4.4;4;;;;;;;;;;;;;
2022/07/28 02:47:48;;;;;;;5.3;3.8;;;;;;;;;;;;;
2022/07/28 02:50:12;;;;;;;4.4;3.6;;;;;;;;;;;;;
2022/07/28 02:52:38;;;;;;;3.8;3.5;;;;;;;;;;;;;
2022/07/28 02:55:03;;;;;;;4.6;3.9;;;;;;;;;;;;;
2022/07/28 02:57:32;;;;;;;4;3.6;;;;;;;;;;;;;
2022/07/28 02:59:57;;;;;;;5;3.8;;;;;;;;;;;;;
2022/07/28 03:02:23;;;;;;;4.2;3.8;;;;;;;;;;;;;
2022/07/28 03:04:57;;;;;;;5.9;3.6;;;;;;;;;;;;;
2022/07/28 03:07:13;;;;;;;4.2;3.6;;;;;;;;;;;;;
2022/07/28 03:09:38;;;;;;;4.7;3.8;;;;;;;;;;;;;
2022/07/28 03:12:03;;;;;;;4.9;3.9;;;;;;;;;;;;;
2022/07/28 03:14:31;;;;;;;5.5;3.7;;;;;;;;;;;;;
2022/07/28 03:16:56;;;;;;;4.8;3.9;;;;;;;;;;;;;
2022/07/28 03:19:22;;;;;;;4.1;3.6;;;;;;;;;;;;;
2022/07/28 03:21:48;;;;;;;4.1;3.7;;;;;;;;;;;;;
2022/07/28 03:24:17;;;;;;;5;3.6;;;;;;;;;;;;;
2022/07/28 03:26:43;;;;;;;5.3;3.8;;;;;;;;;;;;;
2022/07/28 03:29:08;;;;;;;4.9;3.8;;;;;;;;;;;;;
2022/07/28 03:31:34;;;;;;;4.2;3.5;;;;;;;;;;;;;
2022/07/28 03:33:59;;;;;;;4.2;3.8;;;;;;;;;;;;;
2022/07/28 03:36:30;;;;;;;5.7;4;;;;;;;;;;;;;
2022/07/28 03:38:59;;;;;;;4.4;4;;;;;;;;;;;;;
2022/07/28 03:41:24;;;;;;;4.8;3.9;;;;;;;;;;;;;
2022/07/28 03:43:51;;;;;;;4.8;3.9;;;;;;;;;;;;;
2022/07/28 03:46:16;;;;;;;4.2;3.9;;;;;;;;;;;;;
2022/07/28 03:48:45;;;;;;;6.2;4.2;;;;;;;;;;;;;
2022/07/28 03:51:10;;;;;;;4.4;3.7;;;;;;;;;;;;;
2022/07/28 03:53:37;;;;;;;4.6;4.2;;;;;;;;;;;;;
2022/07/28 03:56:02;;;;;;;4.3;3.9;;;;;;;;;;;;;
2022/07/28 03:58:29;;;;;;;4.2;3.8;;;;;;;;;;;;;
2022/07/28 04:02:42;;;;;;;5.4;3.8;;;;;;;14.51;90.69336;936.4626;;;;
2022/07/28 04:05:03;;;;;;;4.5;3.9;;;;;;;14.46;90.86621;936.3749;;;;
2022/07/28 04:07:33;;;;;;;4.2;3.8;;;;;;;14.39;91.3125;936.4327;;;;
2022/07/28 04:10:01;;;;;;;4.2;3.8;;;;;;;14.3;91.7793;936.4294;;;;
2022/07/28 04:12:26;;;;;;;5;3.7;;;;;;;14.4;91.25977;936.454;;;;
2022/07/28 04:14:56;;;;;;;5.2;4.4;;;;;;;14.37;91.59863;936.4391;;;;
2022/07/28 04:17:23;;;;;;;4;3.6;;;;;;;14.24;91.81152;936.4314;;;;
2022/07/28 04:19:48;;;;;;;5.1;3.9;;;;;;;14.1;92.89941;936.4512;;;;
2022/07/28 04:22:13;;;;;;;5.1;4.3;;;;;;;14.14;92.875;936.4839;;;;
2022/07/28 04:24:46;;;;;;;4.6;3.7;;;;;;;14.1;93.33691;936.437;;;;
2022/07/28 04:27:14;;;;;;;5.3;4.2;;;;;;;14.24;92.6748;936.5019;;;;
2022/07/28 04:29:38;;;;;;;4.6;3.7;;;;;;;14.26;92.05957;936.4543;;;;
2022/07/28 04:32:03;;;;;;;4.6;4.1;;;;;;;14.27;92.03809;936.3918;;;;
2022/07/28 04:34:34;;;;;;;5.6;3.8;;;;;;;14.19;92.45605;936.3883;;;;
2022/07/28 04:36:59;;;;;;;6.2;4;;;;;;;14.26;92.12793;936.4072;;;;
2022/07/28 04:39:30;;;;;;;6.2;3.8;;;;;;;14.39;91.37012;936.407;;;;
2022/07/28 04:42:01;;;;;;;4.4;4;;;;;;;14.29;91.90527;936.4061;;;;
2022/07/28 04:44:30;;;;;;;4.4;3.7;;;;;;;14.23;92.4541;936.4002;;;;
2022/07/28 04:46:56;;;;;;;4.4;3.9;;;;;;;14.34;92.0166;936.4554;;;;
2022/07/28 04:49:27;;;;;;;6.6;4;;;;;;;14.53;91.00977;936.4384;;;;
2022/07/28 04:51:52;;;;;;;7;4.6;;;;;;;14.54;90.81641;936.4408;;;;
2022/07/28 04:54:27;;;;;;;4.3;3.7;;;;;;;14.41;91.53711;936.3723;;;;
2022/07/28 04:56:57;;;;;;;4.2;3.8;;;;;;;14.43;91.36914;936.4344;;;;
2022/07/28 04:59:22;;;;;;;4.9;4.1;;;;;;;14.35;91.90527;936.4009;;;;
2022/07/28 05:01:52;;;;;;;4.3;3.5;;;;;;;14.35;92.29688;936.4305;;;;
2022/07/28 05:04:24;;;;;;;4.7;4;;;;;;;14.48;92.03613;936.4277;;;;
2022/07/28 05:06:53;;;;;;;4.3;3.9;;;;;;;14.72;91.33594;936.4514;;;;
2022/07/28 05:09:23;;;;;;;4.2;3.8;;;;;;;14.72;90.64453;936.4281;;;;
2022/07/28 05:11:56;;;;;;;7.2;4.4;;;;;;;14.94;90.10254;936.4175;;;;
2022/07/28 05:14:25;;;;;;;4.9;3.8;;;;;;;15.16;89.50098;936.4659;;;;
2022/07/28 05:16:50;;;;;;;6;3.8;;;;;;;15.33;88.64746;936.4554;;;;
2022/07/28 05:19:20;;;;;;;5.5;3.7;;;;;;;15.48;88.05371;936.4083;;;;
2022/07/28 05:21:47;;;;;;;4.5;3.3;;;;;;;15.6;87.31641;936.4311;;;;
2022/07/28 05:24:12;;;;;;;4.1;3.6;;;;;;;15.65;87.39648;936.4411;;;;
2022/07/28 05:26:44;;;;;;;5;3.1;;;;;;;16.51;83.80566;936.326;;;;
2022/07/28 05:29:14;;;;;;;2.6;2.4;;;;;;;17.69;79.30762;936.3836;;;;
2022/07/28 05:31:42;;;;;;;2.6;2.3;;;;;;;19.09;73.23828;936.3067;;;;
2022/07/28 05:34:08;;;;;;;3.2;2.1;;;;;;;20.42;67.62988;936.2859;;;;
2022/07/28 05:36:36;;;;;;;2.8;2.4;;;;;;;21.01;64.41113;936.3184;;;;
2022/07/28 05:39:01;;;;;;;3.6;2.3;;;;;;;21.45;63.21094;936.2605;;;;
2022/07/28 05:41:30;;;;;;;4.1;2.6;;;;;;;21.79;62.01758;936.2753;;;;
2022/07/28 05:43:56;;;;;;;3;1.9;;;;;;;22.27;60.34863;936.238;;;;
2022/07/28 05:46:25;;;;;;;4.8;2.3;;;;;;;22.87;57.66016;936.2336;;;;
2022/07/28 05:48:50;;;;;;;2.3;2;;;;;;;23.24;56.33203;936.2311;;;;
2022/07/28 05:51:17;;;;;;;2.2;2;;;;;;;22.94;56.68164;936.2083;;;;
2022/07/28 05:53:42;;;;;;;3.1;2.1;;;;;;;23.36;56.53516;936.2445;;;;
2022/07/28 05:56:09;;;;;;;3.4;2;;;;;;;23.76;55.11523;936.1749;;;;
2022/07/28 05:58:35;;;;;;;5.2;2.1;;;;;;;23.41;56.54102;936.2433;;;;
2022/07/28 06:01:02;;;;;;;3.2;2.1;;;;;;;24.12;53.65234;936.2022;;;;
2022/07/28 06:03:29;;;;;;;2.5;2.3;;;;;;;23.27;58.29883;936.145;;;;
2022/07/28 06:05:53;;;;;;;4.9;2.8;;;;;;;22.82;58.49902;936.12;;;;
2022/07/28 06:08:19;;;;;;;3.8;2.5;;;;;;;22.19;59.90332;936.1225;;;;
2022/07/28 06:11:08;;;;;;;3;2.7;;;;;;;21.55;61.98438;936.0715;;;;
2022/07/28 06:13:10;;;;;;;2.4;2.2;;;;;;;22.37;59.2373;936.0474;;;;
2022/07/28 06:15:41;;;;;;;2.6;1.9;;;;;;;23.82;56.34668;936.0461;;;;
2022/07/28 06:18:06;;;;;;;2.6;2.3;;;;;;;24.88;54.79297;935.9786;;;;
2022/07/28 06:20:33;;;;;;;4.6;2;;;;;;;26.42;49.21777;935.9568;;;;
2022/07/28 06:22:58;;;;;;;3.5;1.9;;;;;;;26.6;48.2793;935.9819;;;;
2022/07/28 06:25:25;;;;;;;2;1.9;;;;;;;26.48;47.50781;935.8908;;;;
2022/07/28 06:27:50;;;;;;;2.3;1.9;;;;;;;26.8;49.95898;935.915;;;;
2022/07/28 06:30:18;;;;;;;4.5;2.2;;;;;;;26.93;47.98145;935.9001;;;;
2022/07/28 06:32:43;;;;;;;2.5;1.8;;;;;;;28.21;44.17383;935.9127;;;;
2022/07/28 06:35:15;;;;;;;2.2;1.7;;;;;;;27.66;43.30078;935.9443;;;;
2022/07/28 06:37:39;;;;;;;2.5;2;;;;;;;27.63;44.09277;935.9131;;;;
2022/07/28 06:40:10;;;;;;;3.4;1.7;;;;;;;28.65;43.09863;935.8883;;;;
2022/07/28 06:42:43;;;;;;;2.2;1.9;;;;;;;29.29;41.27734;935.8875;;;;
2022/07/28 06:45:14;;;;;;;1.8;1.7;;;;;;;29.71;40.14746;935.8784;;;;
2022/07/28 06:47:41;;;;;;;1.8;1.7;;;;;;;29.66;39.84473;935.8106;;;;
2022/07/28 06:50:07;;;;;;;3;2;;;;;;;30.33;39.52148;935.8423;;;;
2022/07/28 06:52:34;;;;;;;2.6;1.9;;;;;;;30.39;40.07617;935.808;;;;
2022/07/28 06:54:59;;;;;;;3.2;1.5;;;;;;;29.92;38.50781;935.7709;;;;
2022/07/28 06:57:28;;;;;;;2.1;1.9;;;;;;;29.35;40.4502;935.801;;;;
2022/07/28 06:59:54;;;;;;;3.1;1.5;;;;;;;29.79;40.46484;935.7375;;;;
2022/07/28 07:02:19;;;;;;;2.1;1.8;;;;;;;30.45;38.06348;935.7541;;;;
2022/07/28 07:04:50;;;;;;;1.6;1.5;;;;;;;30.98;37.35547;935.7109;;;;
2022/07/28 07:07:13;;;;;;;2;1.8;;;;;;;31.2;36.28418;935.6666;;;;
2022/07/28 07:09:39;;;;;;;2.1;1.6;;;;;;;31.92;36.03027;935.6127;;;;
2022/07/28 07:12:04;;;;;;;2;1.9;;;;;;;30.19;38.73438;935.6133;;;;
2022/07/28 07:14:32;;;;;;;2.4;1.8;;;;;;;32.43;36.88672;935.6508;;;;
2022/07/28 07:16:56;;;;;;;2;1.8;;;;;;;33.4;35.3418;935.6583;;;;
2022/07/28 07:19:23;;;;;;;2.7;2;;;;;;;33.83;32.63184;935.632;;;;
2022/07/28 07:21:48;;;;;;;1.6;1.5;;;;;;;35;32.28125;935.6021;;;;
2022/07/28 07:24:16;;;;;;;1.7;1.6;;;;;;;34.99;31.84668;935.5764;;;;
2022/07/28 07:26:41;;;;;;;2.1;1.5;;;;;;;34.43;33.60254;935.6115;;;;
2022/07/28 07:29:06;;;;;;;3.1;1.8;;;;;;;33.01;37.30566;935.5975;;;;
2022/07/28 07:31:36;;;;;;;3;1.8;;;;;;;33.32;37.22363;935.5782;;;;
2022/07/28 07:34:03;;;;;;;2;1.8;;;;;;;35.21;33.81738;935.5585;;;;
2022/07/28 07:36:28;;;;;;;1.9;1.8;;;;;;;31.95;39.26855;935.4986;;;;
2022/07/28 07:38:58;;;;;;;3.2;1.7;;;;;;;32.81;38.5498;935.5822;;;;
2022/07/28 07:41:22;;;;;;;4.4;1.8;;;;;;;32.3;39.46582;935.5361;;;;
2022/07/28 07:43:49;;;;;;;4.4;2;;;;;;;30.59;42.26953;935.4944;;;;
2022/07/28 07:46:15;;;;;;;2.8;1.7;;;;;;;30.75;42.47461;935.4697;;;;
2022/07/28 07:48:40;;;;;;;2.7;1.8;;;;;;;31.32;40.56543;935.441;;;;
2022/07/28 07:51:05;;;;;;;2.5;2.1;;;;;;;32.18;39.64844;935.4844;;;;
2022/07/28 07:53:34;;;;;;;3.3;1.8;;;;;;;31.52;39.25488;935.4869;;;;
2022/07/28 07:55:59;;;;;;;3.6;1.9;;;;;;;32.98;38.4209;935.5172;;;;
2022/07/28 07:58:27;;;;;;;2.6;2;;;;;;;32.78;38.52344;935.4986;;;;
2022/07/28 08:00:52;;;;;;;1.9;1.7;;;;;;;32.26;41.10547;935.505;;;;
2022/07/28 08:03:19;;;;;;;2.2;1.7;;;;;;;31.27;43.26465;935.4338;;;;
2022/07/28 08:05:56;;;;;;;2.2;1.7;;;;;;;32.7;38;935.4008;;;;
2022/07/28 08:08:12;;;;;;;2.8;2;;;;;;;32.03;39.80273;935.4028;;;;
2022/07/28 08:10:37;;;;;;;1.9;1.8;;;;;;;32.24;40.47949;935.4104;;;;
2022/07/28 08:13:06;;;;;;;2.5;1.6;;;;;;;33.94;36.29883;935.4429;;;;
2022/07/28 08:15:34;;;;;;;2.9;1.9;;;;;;;33.16;38.17188;935.4158;;;;
2022/07/28 08:18:02;;;;;;;1.9;1.8;;;;;;;31.45;40.24219;935.3674;;;;
2022/07/28 08:20:27;;;;;;;2.2;1.6;;;;;;;32.28;39.62012;935.4414;;;;
2022/07/28 08:22:54;;;;;;;2.5;1.8;;;;;;;32.38;39.4375;935.4055;;;;
2022/07/28 08:25:19;;;;;;;2.4;1.9;;;;;;;32.82;39.21094;935.412;;;;
2022/07/28 08:27:47;;;;;;;2.4;2;;;;;;;30.94;42.87402;935.4017;;;;
2022/07/28 08:30:13;;;;;;;3.1;2;;;;;;;33.04;37.30762;935.4359;;;;
2022/07/28 08:32:40;;;;;;;1.9;1.8;;;;;;;32.16;40.89258;935.4327;;;;
2022/07/28 08:35:05;;;;;;;2.1;1.9;;;;;;;34.11;35.16797;935.4554;;;;
2022/07/28 08:37:32;;;;;;;1.9;1.8;;;;;;;33.56;36.29297;935.5148;;;;
2022/07/28 08:40:05;;;;;;;3.4;1.8;;;;;;;32.02;40.29297;935.4486;;;;
2022/07/28 08:42:31;;;;;;;2.2;2;;;;;;;30.31;43.11426;935.4705;;;;
2022/07/28 08:44:56;;;;;;;3.6;2.3;;;;;;;30.59;41.19434;935.409;;;;
2022/07/28 08:47:27;;;;;;;2.5;1.8;;;;;;;31.06;40.6748;935.3969;;;;
2022/07/28 08:49:55;;;;;;;3.6;2;;;;;;;30.77;43.36133;935.3859;;;;
2022/07/28 08:52:20;;;;;;;2;1.8;;;;;;;32.4;40.19434;935.347;;;;
2022/07/28 08:54:55;;;;;;;4.1;1.9;;;;;;;33.02;39.79395;935.3234;;;;
2022/07/28 08:57:15;;;;;;;2;1.8;;;;;;;34.93;34.44824;935.3301;;;;
2022/07/28 08:59:44;;;;;;;2.5;1.8;;;;;;;34.38;34.6709;935.305;;;;
2022/07/28 09:02:11;;;;;;;2.6;2.1;;;;;;;35.03;33.16504;935.341;;;;
2022/07/28 09:04:43;;;;;;;2.1;1.9;;;;;;;33.65;37.8877;935.3195;;;;
2022/07/28 09:07:06;;;;;;;3.2;1.9;;;;;;;34.16;36.19629;935.3084;;;;
2022/07/28 09:09:34;;;;;;;2;1.9;;;;;;;33.5;38.38086;935.3461;;;;
2022/07/28 09:12:01;;;;;;;3.1;1.9;;;;;;;32.27;40.09863;935.2985;;;;
2022/07/28 09:14:27;;;;;;;2.4;1.9;;;;;;;30.75;44.31445;935.2711;;;;
2022/07/28 09:16:52;;;;;;;3.2;2;;;;;;;32.09;41.70117;935.2808;;;;
2022/07/28 09:19:17;;;;;;;2.2;2;;;;;;;31.94;41.04102;935.2453;;;;
2022/07/28 09:21:43;;;;;;;2.7;1.9;;;;;;;33.09;37.25293;935.3002;;;;
2022/07/28 09:24:08;;;;;;;2.2;2;;;;;;;32.99;39.44238;935.283;;;;
2022/07/28 09:26:36;;;;;;;2.3;2.1;;;;;;;31.8;42.54883;935.2512;;;;
2022/07/28 09:29:03;;;;;;;3.6;2;;;;;;;30.26;43.72949;935.3091;;;;
2022/07/28 09:31:29;;;;;;;2;1.8;;;;;;;30.66;44.93945;935.2606;;;;
2022/07/28 09:33:54;;;;;;;2.7;2.2;;;;;;;30.32;45.09766;935.192;;;;
2022/07/28 09:36:20;;;;;;;2.5;2.1;;;;;;;30.02;47.23926;935.2186;;;;
2022/07/28 09:38:47;;;;;;;3.3;2.3;;;;;;;31.86;41.12891;935.1533;;;;
2022/07/28 09:41:13;;;;;;;3.2;2.2;;;;;;;32.89;39.83105;935.1821;;;;
2022/07/28 09:43:41;;;;;;;2.8;2.1;;;;;;;32.13;42.58105;935.1319;;;;
2022/07/28 09:46:06;;;;;;;2.5;2.2;;;;;;;31.17;43.41113;935.1769;;;;
2022/07/28 09:48:34;;;;;;;2.4;1.9;;;;;;;32.33;40.95508;935.1406;;;;
2022/07/28 09:50:59;;;;;;;2.3;2.1;;;;;;;33.11;40.6543;935.2177;;;;
2022/07/28 09:53:24;;;;;;;4.1;1.8;;;;;;;31.59;43.0459;935.1912;;;;
2022/07/28 09:55:54;;;;;;;2.3;2.1;;;;;;;31.56;43.05273;935.2043;;;;
2022/07/28 09:58:24;;;;;;;3.3;2.5;;;;;;;30.86;43.97949;935.1733;;;;
2022/07/28 10:00:49;;;;;;;2.1;1.9;;;;;;;31.23;43.18945;935.1877;;;;
2022/07/28 10:03:19;;;;;;;3.1;2.6;;;;;;;30.78;46.98438;935.1089;;;;
2022/07/28 10:05:45;;;;;;;4.3;2.4;;;;;;;30.41;45.69238;935.1498;;;;
2022/07/28 10:08:09;;;;;;;2.4;2.1;;;;;;;30.68;44.78613;935.1671;;;;
2022/07/28 10:10:34;;;;;;;2.6;2.2;;;;;;;29.41;48.42578;935.1593;;;;
2022/07/28 10:13:02;;;;;;;3.4;2.2;;;;;;;29.19;48.13965;935.0936;;;;
2022/07/28 10:17:54;;;;;;;5.1;2.1;;;;;;;27.98;52.2041;935.092;;;;
2022/07/28 10:20:20;;;;;;;2.8;2.2;;;;;;;29.08;49.36719;935.1362;;;;
2022/07/28 10:22:47;;;;;;;2.4;2.1;;;;;;;30.32;45.44336;935.0806;;;;
2022/07/28 10:25:13;;;;;;;3.2;2.5;;;;;;;30.46;46.26953;935.0219;;;;
2022/07/28 10:27:40;;;;;;;2.5;2.3;;;;;;;29.93;46.95508;935.0467;;;;
2022/07/28 10:30:05;;;;;;;4;2.5;;;;;;;29.89;49.65918;935.0963;;;;
2022/07/28 10:32:33;;;;;;;2.8;2.3;;;;;;;30.04;46.97949;935.0499;;;;
2022/07/28 10:34:58;;;;;;;4.5;2.1;;;;;;;30.37;46.96387;935.0161;;;;
2022/07/28 10:37:23;;;;;;;2.3;2.1;;;;;;;30.23;47.71484;934.9383;;;;
2022/07/28 10:39:51;;;;;;;4.1;2.7;;;;;;;30.33;48.33398;935.0503;;;;
2022/07/28 10:42:19;;;;;;;3.1;2.4;;;;;;;30.12;47.79785;934.9914;;;;
2022/07/28 10:44:48;;;;;;;2.6;2.1;;;;;;;30.2;47.99805;934.9925;;;;
2022/07/28 10:47:13;;;;;;;2.3;1.9;;;;;;;29.94;48.97168;934.9619;;;;
2022/07/28 10:49:40;;;;;;;3.6;2.3;;;;;;;30.2;45.94434;935.0159;;;;
2022/07/28 10:52:05;;;;;;;2.7;2.5;;;;;;;29.99;47.74902;934.9842;;;;
2022/07/28 10:54:31;;;;;;;2.7;2.5;;;;;;;29.44;49.1084;935.0787;;;;
2022/07/28 10:56:59;;;;;;;4;2.5;;;;;;;29.91;47.14355;935.1057;;;;
2022/07/28 10:59:25;;;;;;;2.8;2.3;;;;;;;29.18;51.25977;935.0994;;;;
2022/07/28 11:01:55;;;;;;;2.5;2.3;;;;;;;30.08;47.99609;935.0466;;;;
2022/07/28 11:04:20;;;;;;;2.8;2.5;;;;;;;30.35;47.92969;935.0554;;;;
2022/07/28 11:06:46;;;;;;;3.9;2.6;;;;;;;30.84;45.40039;935.0422;;;;
2022/07/28 11:09:10;;;;;;;4.4;2.8;;;;;;;30.68;44.90625;935.0129;;;;
2022/07/28 11:11:37;;;;;;;6.3;2.9;;;;;;;30.84;44.79004;934.9945;;;;
2022/07/28 11:14:07;;;;;;;3.2;2.5;;;;;;;30.75;48.76172;934.9725;;;;
2022/07/28 11:16:38;;;;;;;3.5;2.9;;;;;;;30.87;47.31641;934.9617;;;;
2022/07/28 11:19:06;;;;;;;2.9;2.6;;;;;;;30.69;48.27637;934.9342;;;;
2022/07/28 11:21:40;;;;;;;3;2.4;;;;;;;30.15;48.20703;934.8407;;;;
2022/07/28 11:24:05;;;;;;;3.9;3.2;;;;;;;30.66;47.42578;934.8226;;;;
2022/07/28 11:26:34;;;;;;;2.9;2.4;;;;;;;30.51;46.76465;934.8886;;;;
2022/07/28 11:28:56;;;;;;;3.6;2.8;;;;;;;29.72;50.12793;934.8661;;;;
2022/07/28 11:31:21;;;;;;;3.4;3.1;;;;;;;29.36;49.16016;934.7683;;;;
2022/07/28 11:33:48;;;;;;;3.5;3.1;;;;;;;28.75;52.66211;934.8074;;;;
2022/07/28 11:36:13;;;;;;;3.1;2.8;;;;;;;29.02;50.86035;934.8586;;;;
2022/07/28 11:40:23;;;;;;;4.4;3.2;;;;;;;28.92;51.14746;934.8592;;;;
2022/07/28 11:42:50;;;;;;;3.3;3;;;;;;;28.61;52.97949;934.8865;;;;
2022/07/28 11:45:15;;;;;;;7;3.5;;;;;;;28.77;53.07031;934.8214;;;;
2022/07/28 11:47:41;;;;;;;4.4;3.3;;;;;;;28.88;52.35645;934.8089;;;;
2022/07/28 11:50:06;;;;;;;3.5;3.2;;;;;;;28.43;56.08398;934.8108;;;;
2022/07/28 11:52:31;;;;;;;3.6;3;;;;;;;28;55.54492;934.7845;;;;
2022/07/28 11:54:58;;;;;;;4.1;3.4;;;;;;;27.74;58.42188;934.7342;;;;
2022/07/28 11:57:25;;;;;;;3.2;2.9;;;;;;;28.08;57.3252;934.7839;;;;
2022/07/28 11:59:48;;;;;;;3.7;3.2;;;;;;;28.38;54.94922;934.7805;;;;
2022/07/28 12:02:14;;;;;;;3.3;3;;;;;;;28.03;55.53711;934.8022;;;;
2022/07/28 12:04:39;;;;;;;4.7;3.3;;;;;;;28.23;54.68164;934.7642;;;;
2022/07/28 12:07:10;;;;;;;3.6;3;;;;;;;28.32;54.4668;934.7578;;;;
2022/07/28 12:09:40;;;;;;;5;3.3;;;;;;;28.51;52.63379;934.7249;;;;
2022/07/28 12:12:04;;;;;;;3.6;3.3;;;;;;;28.7;53.03809;934.7103;;;;
2022/07/28 12:14:29;;;;;;;3.9;3.2;;;;;;;28.88;52.14258;934.6817;;;;
2022/07/28 12:16:57;;;;;;;4.9;3.3;;;;;;;28.43;55.11133;934.7083;;;;
2022/07/28 12:19:22;;;;;;;5.3;3.2;;;;;;;28.44;54.5293;934.6749;;;;
2022/07/28 12:21:49;;;;;;;4.1;3.3;;;;;;;28.02;56.14063;934.6381;;;;
2022/07/28 12:24:14;;;;;;;3.7;2.8;;;;;;;28.24;55.25293;934.5978;;;;
2022/07/28 12:26:39;;;;;;;3.3;3;;;;;;;28.29;54.57129;934.5558;;;;
2022/07/28 12:29:04;;;;;;;4.6;3.3;;;;;;;28.18;55.04395;934.6158;;;;
2022/07/28 12:31:31;;;;;;;4.4;3.1;;;;;;;28.32;54.90723;934.6373;;;;
2022/07/28 12:33:56;;;;;;;3.3;3;;;;;;;28.4;52.63281;934.6267;;;;
2022/07/28 12:36:27;;;;;;;4.8;3.6;;;;;;;28.18;54.6875;934.5775;;;;
2022/07/28 12:38:52;;;;;;;3.8;3.1;;;;;;;28.06;56.09863;934.5195;;;;
2022/07/28 12:41:17;;;;;;;3.2;2.9;;;;;;;27.82;55.12988;934.509;;;;
2022/07/28 12:43:42;;;;;;;4;3.2;;;;;;;27.66;54.76758;934.488;;;;
2022/07/28 12:46:07;;;;;;;3.6;3.2;;;;;;;27.49;55.60059;934.4595;;;;
2022/07/28 12:48:32;;;;;;;3.3;3;;;;;;;27.27;57.5293;934.4231;;;;
2022/07/28 12:50:59;;;;;;;3.5;3.2;;;;;;;27.21;56.95313;934.4396;;;;
2022/07/28 12:53:24;;;;;;;4.7;3;;;;;;;27.27;59.28516;934.4109;;;;
2022/07/28 12:55:50;;;;;;;3.6;3.3;;;;;;;27.37;56.47559;934.385;;;;
2022/07/28 12:58:18;;;;;;;3.2;2.9;;;;;;;27.41;56.62305;934.4169;;;;
2022/07/28 13:00:43;;;;;;;5;3.6;;;;;;;27.2;56.88086;934.4965;;;;
2022/07/28 13:03:08;;;;;;;3.5;3.2;;;;;;;27.26;56.58008;934.4705;;;;
2022/07/28 13:06:00;;;;;;;3.2;2.9;;;;;;;27.62;56.45898;934.4565;;;;
2022/07/28 13:07:58;;;;;;;4;3.6;;;;;;;27.99;55.74414;934.4168;;;;
2022/07/28 13:10:23;;;;;;;3.5;3.2;;;;;;;28.1;55.24902;934.408;;;;
2022/07/28 13:12:48;;;;;;;5.5;3.5;;;;;;;28.26;55.6123;934.4428;;;;
2022/07/28 13:15:16;;;;;;;3.5;3.2;;;;;;;28.15;55.06445;934.3945;;;;
2022/07/28 13:17:46;;;;;;;3.4;3.1;;;;;;;28.23;54.91895;934.3688;;;;
2022/07/28 13:20:11;;;;;;;3.8;3.1;;;;;;;27.99;55.7793;934.3169;;;;
2022/07/28 13:22:39;;;;;;;3.4;2.9;;;;;;;28.29;53.7627;934.3281;;;;
2022/07/28 13:25:04;;;;;;;4.4;2.9;;;;;;;28.31;54.34766;934.3709;;;;
2022/07/28 13:27:35;;;;;;;3.9;3.5;;;;;;;27.9;54.60547;934.3555;;;;
2022/07/28 13:30:03;;;;;;;5.4;3.6;;;;;;;27.43;56.30566;934.2946;;;;
2022/07/28 13:32:28;;;;;;;3;2.8;;;;;;;27.28;59.23828;934.2844;;;;
2022/07/28 13:34:58;;;;;;;3.3;3;;;;;;;27.09;60.81543;934.2443;;;;
2022/07/28 13:37:23;;;;;;;4.4;3.2;;;;;;;27.24;58.83008;934.2313;;;;
2022/07/28 13:39:53;;;;;;;3.7;3.4;;;;;;;27.33;58.79395;934.2103;;;;
2022/07/28 13:42:21;;;;;;;5.5;3.5;;;;;;;27.62;55.48535;934.2104;;;;
2022/07/28 13:44:46;;;;;;;3.4;3.1;;;;;;;27.63;57.94336;934.1322;;;;
2022/07/28 13:47:13;;;;;;;4.4;3.1;;;;;;;27.95;56.90527;934.0828;;;;
2022/07/28 13:49:38;;;;;;;3.7;3.3;;;;;;;27.57;56.45313;934.1786;;;;
2022/07/28 13:52:05;;;;;;;5.5;3.5;;;;;;;27.44;56.05664;934.2299;;;;
2022/07/28 13:54:30;;;;;;;4.8;3.5;;;;;;;27.31;56.14746;934.2089;;;;
2022/07/28 13:56:58;;;;;;;4.9;3.5;;;;;;;27.26;56.72266;934.323;;;;
2022/07/28 13:59:23;;;;;;;6.9;4.1;;;;;;;27.15;56.96875;934.3762;;;;
2022/07/28 14:01:54;;;;;;;4.2;2.9;;;;;;;27.13;56.20801;934.384;;;;
2022/07/28 14:04:17;;;;;;;3.6;3.3;;;;;;;26.97;57.01855;934.4091;;;;
2022/07/28 14:06:45;;;;;;;3.3;2.9;;;;;;;26.98;56.79297;934.4228;;;;
2022/07/28 14:09:10;;;;;;;3.8;3.4;;;;;;;26.98;57.95508;934.4512;;;;
2022/07/28 14:13:01;;;;;;;6.2;4.2;;;;;;;26.99;57.17383;934.4099;;;;
2022/07/28 14:15:43;;;;;;;8.5;4.4;;;;;;;26.93;57.9502;934.4998;;;;
2022/07/28 14:16:42;;;;;;;4.4;3.4;;;;;;;26.99;57.45801;934.4889;;;;
2022/07/28 14:19:15;;;;;;;3.8;3.1;;;;;;;26.77;57.80859;934.4654;;;;
2022/07/28 14:21:37;;;;;;;4.6;3.1;;;;;;;26.73;57.7334;934.4756;;;;
2022/07/28 14:24:04;;;;;;;3.8;3.4;;;;;;;26.72;57.49414;934.4815;;;;
2022/07/28 14:26:29;;;;;;;3.5;3;;;;;;;26.59;57.84668;934.5112;;;;
2022/07/28 14:28:54;;;;;;;3.8;3.4;;;;;;;26.51;57.97852;934.4105;;;;
2022/07/28 14:31:21;;;;;;;3.5;3.2;;;;;;;26.45;58.23047;934.4526;;;;
2022/07/28 14:33:45;;;;;;;4.6;3.1;;;;;;;26.28;59.49707;934.5119;;;;
2022/07/28 14:36:16;;;;;;;4.6;3.8;;;;;;;26.33;59.13672;934.5809;;;;
2022/07/28 14:38:39;;;;;;;5;3.4;;;;;;;26.23;58.76953;934.5798;;;;
2022/07/28 14:41:07;;;;;;;3.1;2.8;;;;;;;26.28;58.48047;934.5042;;;;
2022/07/28 14:43:32;;;;;;;5.5;3.3;;;;;;;26.3;58.56543;934.3557;;;;
2022/07/28 14:45:59;;;;;;;4.1;3.3;;;;;;;26.23;58.94629;934.1783;;;;
2022/07/28 14:48:24;;;;;;;3.5;3.2;;;;;;;26.11;59.27441;934.0648;;;;
2022/07/28 14:50:51;;;;;;;4.9;3.6;;;;;;;26.11;59.8291;933.9917;;;;
2022/07/28 14:53:16;;;;;;;3.4;2.9;;;;;;;26.06;60.13184;934.0424;;;;
2022/07/28 14:55:43;;;;;;;3.3;3;;;;;;;25.83;60.68066;934.1431;;;;
2022/07/28 14:58:08;;;;;;;4.3;3.5;;;;;;;25.86;60.1748;934.3163;;;;
2022/07/28 15:00:35;;;;;;;3.5;3.2;;;;;;;25.83;59.81641;934.3585;;;;
2022/07/28 15:03:00;;;;;;;3.3;3;;;;;;;25.83;60.34961;934.4727;;;;
2022/07/28 15:05:25;;;;;;;3.5;3.1;;;;;;;25.89;60.2627;934.4661;;;;
2022/07/28 15:07:53;;;;;;;4.1;3.5;;;;;;;25.79;59.78809;934.3474;;;;
2022/07/28 15:10:18;;;;;;;3.2;2.9;;;;;;;25.84;59.74707;934.4503;;;;
2022/07/28 15:12:45;;;;;;;3.8;3.4;;;;;;;25.89;59.97852;934.4817;;;;
2022/07/28 15:15:10;;;;;;;3.3;3.1;;;;;;;25.8;60.27246;934.582;;;;
2022/07/28 15:17:45;;;;;;;5.8;3.1;;;;;;;25.79;60.2959;934.5908;;;;
2022/07/28 15:20:17;;;;;;;3.6;3.3;;;;;;;25.8;62.42383;934.6131;;;;
2022/07/28 15:22:44;;;;;;;3.7;3.4;;;;;;;25.8;62.31836;934.5818;;;;
2022/07/28 15:25:09;;;;;;;3.9;3.2;;;;;;;25.7;64.90527;934.5408;;;;
2022/07/28 15:27:40;;;;;;;3.6;3.3;;;;;;;25.76;64.16895;934.4509;;;;
2022/07/28 15:30:12;;;;;;;3.8;3.5;;;;;;;25.72;64.33984;934.3759;;;;
2022/07/28 15:32:38;;;;;;;3.8;3.4;;;;;;;25.79;64.17285;934.3654;;;;
2022/07/28 15:35:04;;;;;;;3.6;3.3;;;;;;;25.81;63.3252;934.2974;;;;
2022/07/28 15:37:35;;;;;;;4;3.6;;;;;;;25.82;63.53906;934.3385;;;;
2022/07/28 15:40:03;;;;;;;6;3.5;;;;;;;25.8;65.74512;934.4271;;;;
2022/07/28 15:42:28;;;;;;;4.6;3.5;;;;;;;25.68;65.97656;934.4297;;;;
2022/07/28 15:44:57;;;;;;;5.1;3.6;;;;;;;25.73;66.35254;934.4216;;;;